sensor_id;sensor_type;location;lat;lon;timestamp;pressure;altitude;pressure_sealevel;temperature;humidity
70954;BME280;58618;47.490;8.736;2023-02-22T00:00:15;96477.38;;;0.90;100.00
70954;BME280;58618;47.490;8.736;2023-02-22T00:02:45;96470.19;;;0.69;100.00
70954;BME280;58618;47.490;8.736;2023-02-22T00:05:13;96483.69;;;0.88;100.00
70954;BME280;58618;47.490;8.736;2023-02-22T00:07:43;96480.00;;;1.02;100.00
70954;BME280;58618;47.490;8.736;2023-02-22T00:10:10;96477.97;;;1.10;100.00
70954;BME280;58618;47.490;8.736;2023-02-22T00:12:40;96446.50;;;0.93;100.00
70954;BME280;58618;47.490;8.736;2023-02-22T00:15:08;96483.44;;;1.07;100.00
70954;BME280;58618;47.490;8.736;2023-02-22T00:17:39;96422.25;;;0.61;100.00
70954;BME280;58618;47.490;8.736;2023-02-22T00:20:08;96466.81;;;0.75;100.00
70954;BME280;58618;47.490;8.736;2023-02-22T00:22:39;96468.41;;;0.69;100.00
70954;BME280;58618;47.490;8.736;2023-02-22T00:25:07;96458.63;;;0.55;100.00
70954;BME280;58618;47.490;8.736;2023-02-22T00:27:35;96462.50;;;0.57;100.00
70954;BME280;58618;47.490;8.736;2023-02-22T00:30:03;96463.50;;;0.56;100.00
70954;BME280;58618;47.490;8.736;2023-02-22T00:32:30;96431.41;;;0.43;100.00
70954;BME280;58618;47.490;8.736;2023-02-22T00:34:59;96452.91;;;0.59;100.00
70954;BME280;58618;47.490;8.736;2023-02-22T00:37:26;96443.09;;;0.45;100.00
70954;BME280;58618;47.490;8.736;2023-02-22T00:39:56;96440.41;;;0.39;100.00
70954;BME280;58618;47.490;8.736;2023-02-22T00:42:23;96468.75;;;0.55;100.00
70954;BME280;58618;47.490;8.736;2023-02-22T00:44:50;96456.94;;;0.67;100.00
70954;BME280;58618;47.490;8.736;2023-02-22T00:47:17;96440.59;;;0.63;100.00
70954;BME280;58618;47.490;8.736;2023-02-22T00:49:45;96474.00;;;0.78;100.00
70954;BME280;58618;47.490;8.736;2023-02-22T00:52:13;96450.59;;;0.58;100.00
70954;BME280;58618;47.490;8.736;2023-02-22T00:54:40;96469.78;;;0.72;100.00
70954;BME280;58618;47.490;8.736;2023-02-22T00:57:07;96425.69;;;0.48;100.00
70954;BME280;58618;47.490;8.736;2023-02-22T00:59:35;96459.91;;;0.82;100.00
70954;BME280;58618;47.490;8.736;2023-02-22T01:02:02;96456.00;;;0.79;100.00
70954;BME280;58618;47.490;8.736;2023-02-22T01:04:29;96460.34;;;0.79;100.00
70954;BME280;58618;47.490;8.736;2023-02-22T01:06:56;96459.75;;;0.59;100.00
70954;BME280;58618;47.490;8.736;2023-02-22T01:09:27;96468.75;;;0.55;100.00
70954;BME280;58618;47.490;8.736;2023-02-22T01:11:54;96445.91;;;0.36;100.00
70954;BME280;58618;47.490;8.736;2023-02-22T01:14:22;96455.94;;;0.50;100.00
70954;BME280;58618;47.490;8.736;2023-02-22T01:16:51;96457.50;;;0.51;100.00
70954;BME280;58618;47.490;8.736;2023-02-22T01:19:20;96434.91;;;0.42;100.00
70954;BME280;58618;47.490;8.736;2023-02-22T01:21:49;96430.28;;;0.39;100.00
70954;BME280;58618;47.490;8.736;2023-02-22T01:24:17;96445.09;;;0.61;100.00
70954;BME280;58618;47.490;8.736;2023-02-22T01:26:50;96448.59;;;0.60;100.00
70954;BME280;58618;47.490;8.736;2023-02-22T01:29:18;96453.25;;;0.45;100.00
70954;BME280;58618;47.490;8.736;2023-02-22T01:31:52;96454.38;;;0.49;100.00
70954;BME280;58618;47.490;8.736;2023-02-22T01:34:21;96446.63;;;0.43;100.00
70954;BME280;58618;47.490;8.736;2023-02-22T01:36:48;96396.56;;;0.14;100.00
70954;BME280;58618;47.490;8.736;2023-02-22T01:39:16;96430.75;;;0.30;100.00
70954;BME280;58618;47.490;8.736;2023-02-22T01:41:43;96424.75;;;0.42;100.00
70954;BME280;58618;47.490;8.736;2023-02-22T01:44:20;96406.16;;;0.30;100.00
70954;BME280;58618;47.490;8.736;2023-02-22T01:46:47;96428.59;;;0.52;100.00
70954;BME280;58618;47.490;8.736;2023-02-22T01:49:15;96438.31;;;0.55;100.00
70954;BME280;58618;47.490;8.736;2023-02-22T01:51:45;96413.50;;;0.38;100.00
70954;BME280;58618;47.490;8.736;2023-02-22T01:54:17;96407.72;;;0.31;100.00
70954;BME280;58618;47.490;8.736;2023-02-22T01:56:49;96387.41;;;0.13;100.00
70954;BME280;58618;47.490;8.736;2023-02-22T01:59:20;96387.31;;;0.02;100.00
70954;BME280;58618;47.490;8.736;2023-02-22T02:01:48;96425.72;;;0.23;100.00
70954;BME280;58618;47.490;8.736;2023-02-22T02:04:18;96423.34;;;0.28;100.00
70954;BME280;58618;47.490;8.736;2023-02-22T02:06:51;96435.09;;;0.23;100.00
70954;BME280;58618;47.490;8.736;2023-02-22T02:09:23;96431.53;;;0.30;100.00
70954;BME280;58618;47.490;8.736;2023-02-22T02:11:54;96410.66;;;0.10;100.00
70954;BME280;58618;47.490;8.736;2023-02-22T02:14:27;96418.47;;;0.09;100.00
70954;BME280;58618;47.490;8.736;2023-02-22T02:16:57;96424.16;;;0.04;100.00
70954;BME280;58618;47.490;8.736;2023-02-22T02:19:36;96395.19;;;-0.07;100.00
70954;BME280;58618;47.490;8.736;2023-02-22T02:28:16;96407.19;;;0.05;100.00
70954;BME280;58618;47.490;8.736;2023-02-22T02:31:15;96428.13;;;0.18;100.00
70954;BME280;58618;47.490;8.736;2023-02-22T02:33:53;96421.94;;;0.32;100.00
70954;BME280;58618;47.490;8.736;2023-02-22T02:36:29;96420.66;;;0.23;100.00
70954;BME280;58618;47.490;8.736;2023-02-22T02:39:05;96383.00;;;0.02;100.00
70954;BME280;58618;47.490;8.736;2023-02-22T02:41:38;96411.16;;;0.19;100.00
70954;BME280;58618;47.490;8.736;2023-02-22T02:44:11;96406.91;;;0.13;100.00
70954;BME280;58618;47.490;8.736;2023-02-22T02:46:45;96411.94;;;0.19;100.00
70954;BME280;58618;47.490;8.736;2023-02-22T02:49:18;96409.03;;;0.16;100.00
70954;BME280;58618;47.490;8.736;2023-02-22T02:51:57;96404.03;;;0.09;100.00
70954;BME280;58618;47.490;8.736;2023-02-22T02:54:26;96379.69;;;0.02;100.00
70954;BME280;58618;47.490;8.736;2023-02-22T02:56:55;96376.75;;;0.05;100.00
70954;BME280;58618;47.490;8.736;2023-02-22T02:59:24;96374.72;;;0.13;100.00
70954;BME280;58618;47.490;8.736;2023-02-22T03:02:01;96396.09;;;0.24;100.00
70954;BME280;58618;47.490;8.736;2023-02-22T03:04:46;96383.88;;;0.14;100.00
70954;BME280;58618;47.490;8.736;2023-02-22T03:07:27;96359.22;;;0.03;100.00
70954;BME280;58618;47.490;8.736;2023-02-22T03:10:10;96345.66;;;-0.09;100.00
70954;BME280;58618;47.490;8.736;2023-02-22T03:12:44;96381.75;;;0.11;100.00
70954;BME280;58618;47.490;8.736;2023-02-22T03:15:24;96387.53;;;0.18;100.00
70954;BME280;58618;47.490;8.736;2023-02-22T03:18:03;96368.63;;;-0.04;100.00
70954;BME280;58618;47.490;8.736;2023-02-22T03:20:39;96393.44;;;0.12;100.00
70954;BME280;58618;47.490;8.736;2023-02-22T03:23:17;96362.91;;;-0.18;100.00
70954;BME280;58618;47.490;8.736;2023-02-22T03:25:52;96375.53;;;-0.11;100.00
70954;BME280;58618;47.490;8.736;2023-02-22T03:28:24;96376.38;;;0.01;100.00
70954;BME280;58618;47.490;8.736;2023-02-22T03:30:56;96370.63;;;-0.06;100.00
70954;BME280;58618;47.490;8.736;2023-02-22T03:33:29;96381.06;;;0.04;100.00
70954;BME280;58618;47.490;8.736;2023-02-22T03:36:00;96381.09;;;-0.03;100.00
70954;BME280;58618;47.490;8.736;2023-02-22T03:38:32;96355.50;;;-0.19;100.00
70954;BME280;58618;47.490;8.736;2023-02-22T03:41:22;96380.31;;;-0.03;100.00
70954;BME280;58618;47.490;8.736;2023-02-22T03:43:53;96379.94;;;0.00;100.00
70954;BME280;58618;47.490;8.736;2023-02-22T03:46:22;96383.84;;;-0.04;100.00
70954;BME280;58618;47.490;8.736;2023-02-22T03:48:51;96375.53;;;-0.11;100.00
70954;BME280;58618;47.490;8.736;2023-02-22T03:51:22;96385.81;;;-0.06;100.00
70954;BME280;58618;47.490;8.736;2023-02-22T03:53:53;96357.06;;;-0.18;100.00
70954;BME280;58618;47.490;8.736;2023-02-22T03:56:22;96385.00;;;0.00;100.00
70954;BME280;58618;47.490;8.736;2023-02-22T03:58:52;96386.94;;;-0.02;100.00
70954;BME280;58618;47.490;8.736;2023-02-22T04:01:19;96379.59;;;-0.10;100.00
70954;BME280;58618;47.490;8.736;2023-02-22T04:03:48;96380.53;;;-0.05;100.00
70954;BME280;58618;47.490;8.736;2023-02-22T04:06:15;96381.53;;;-0.06;100.00
70954;BME280;58618;47.490;8.736;2023-02-22T04:08:42;96382.47;;;0.00;100.00
70954;BME280;58618;47.490;8.736;2023-02-22T04:11:11;96390.41;;;0.04;100.00
70954;BME280;58618;47.490;8.736;2023-02-22T04:13:38;96381.69;;;-0.01;100.00
70954;BME280;58618;47.490;8.736;2023-02-22T04:16:06;96382.75;;;0.10;100.00
70954;BME280;58618;47.490;8.736;2023-02-22T04:18:33;96337.56;;;-0.18;100.00
70954;BME280;58618;47.490;8.736;2023-02-22T04:21:00;96360.47;;;-0.06;100.00
70954;BME280;58618;47.490;8.736;2023-02-22T04:23:27;96377.53;;;0.05;100.00
70954;BME280;58618;47.490;8.736;2023-02-22T04:25:54;96375.44;;;0.20;100.00
70954;BME280;58618;47.490;8.736;2023-02-22T04:28:23;96382.81;;;0.22;100.00
70954;BME280;58618;47.490;8.736;2023-02-22T04:30:50;96379.75;;;0.20;100.00
70954;BME280;58618;47.490;8.736;2023-02-22T04:33:17;96354.50;;;0.07;100.00
70954;BME280;58618;47.490;8.736;2023-02-22T04:35:44;96384.31;;;0.29;100.00
70954;BME280;58618;47.490;8.736;2023-02-22T04:38:12;96359.50;;;0.13;100.00
70954;BME280;58618;47.490;8.736;2023-02-22T04:40:40;96376.13;;;0.27;100.00
70954;BME280;58618;47.490;8.736;2023-02-22T04:43:07;96354.00;;;0.16;100.00
70954;BME280;58618;47.490;8.736;2023-02-22T04:45:35;96380.03;;;0.30;100.00
70954;BME280;58618;47.490;8.736;2023-02-22T04:48:03;96374.19;;;0.29;100.00
70954;BME280;58618;47.490;8.736;2023-02-22T04:50:30;96377.69;;;0.28;100.00
70954;BME280;58618;47.490;8.736;2023-02-22T04:52:57;96388.13;;;0.38;100.00
70954;BME280;58618;47.490;8.736;2023-02-22T04:55:24;96336.13;;;0.11;100.00
70954;BME280;58618;47.490;8.736;2023-02-22T04:57:53;96376.81;;;0.41;100.00
70954;BME280;58618;47.490;8.736;2023-02-22T05:00:20;96370.94;;;0.40;100.00
70954;BME280;58618;47.490;8.736;2023-02-22T05:02:49;96376.72;;;0.48;100.00
70954;BME280;58618;47.490;8.736;2023-02-22T05:05:19;96378.19;;;0.55;100.00
70954;BME280;58618;47.490;8.736;2023-02-22T05:07:47;96380.09;;;0.60;100.00
70954;BME280;58618;47.490;8.736;2023-02-22T05:10:15;96370.38;;;0.57;100.00
70954;BME280;58618;47.490;8.736;2023-02-22T05:12:42;96377.34;;;0.61;100.00
70954;BME280;58618;47.490;8.736;2023-02-22T05:15:10;96380.38;;;0.70;100.00
70954;BME280;58618;47.490;8.736;2023-02-22T05:17:41;96375.44;;;0.75;100.00
70954;BME280;58618;47.490;8.736;2023-02-22T05:20:15;96359.28;;;0.69;100.00
70954;BME280;58618;47.490;8.736;2023-02-22T05:22:43;96372.88;;;0.75;100.00
70954;BME280;58618;47.490;8.736;2023-02-22T05:25:10;96353.09;;;0.65;100.00
70954;BME280;58618;47.490;8.736;2023-02-22T05:27:38;96344.84;;;0.70;100.00
70954;BME280;58618;47.490;8.736;2023-02-22T05:30:06;96367.66;;;0.88;100.00
70954;BME280;58618;47.490;8.736;2023-02-22T05:32:34;96361.16;;;0.92;100.00
70954;BME280;58618;47.490;8.736;2023-02-22T05:35:01;96352.00;;;0.91;100.00
70954;BME280;58618;47.490;8.736;2023-02-22T05:37:32;96341.16;;;0.84;100.00
70954;BME280;58618;47.490;8.736;2023-02-22T05:40:06;96363.97;;;1.02;100.00
70954;BME280;58618;47.490;8.736;2023-02-22T05:42:40;96353.13;;;0.95;100.00
70954;BME280;58618;47.490;8.736;2023-02-22T05:45:10;96363.56;;;1.05;100.00
70954;BME280;58618;47.490;8.736;2023-02-22T05:47:38;96344.50;;;0.96;100.00
70954;BME280;58618;47.490;8.736;2023-02-22T05:50:06;96366.22;;;1.10;100.00
70954;BME280;58618;47.490;8.736;2023-02-22T05:52:35;96340.97;;;0.97;100.00
70954;BME280;58618;47.490;8.736;2023-02-22T05:55:04;96365.00;;;1.13;100.00
70954;BME280;58618;47.490;8.736;2023-02-22T05:57:32;96328.94;;;0.93;100.00
70954;BME280;58618;47.490;8.736;2023-02-22T06:00:00;96357.47;;;1.06;100.00
70954;BME280;58618;47.490;8.736;2023-02-22T06:02:27;96336.34;;;0.94;100.00
70954;BME280;58618;47.490;8.736;2023-02-22T06:04:55;96360.25;;;1.16;100.00
70954;BME280;58618;47.490;8.736;2023-02-22T06:07:22;96355.16;;;1.16;100.00
70954;BME280;58618;47.490;8.736;2023-02-22T06:09:51;96336.94;;;1.08;100.00
70954;BME280;58618;47.490;8.736;2023-02-22T06:12:18;96352.53;;;1.23;100.00
70954;BME280;58618;47.490;8.736;2023-02-22T06:14:46;96333.31;;;1.15;100.00
70954;BME280;58618;47.490;8.736;2023-02-22T06:17:14;96354.91;;;1.36;100.00
70954;BME280;58618;47.490;8.736;2023-02-22T06:19:42;96341.19;;;1.25;100.00
70954;BME280;58618;47.490;8.736;2023-02-22T06:22:15;96351.59;;;1.36;100.00
70954;BME280;58618;47.490;8.736;2023-02-22T06:24:43;96340.88;;;1.34;100.00
70954;BME280;58618;47.490;8.736;2023-02-22T06:27:11;96365.84;;;1.48;100.00
70954;BME280;58618;47.490;8.736;2023-02-22T06:29:43;96362.88;;;1.40;100.00
70954;BME280;58618;47.490;8.736;2023-02-22T06:32:11;96364.72;;;1.33;100.00
70954;BME280;58618;47.490;8.736;2023-02-22T06:34:40;96364.72;;;1.33;100.00
70954;BME280;58618;47.490;8.736;2023-02-22T06:37:07;96365.16;;;1.30;100.00
70954;BME280;58618;47.490;8.736;2023-02-22T06:39:34;96360.66;;;1.32;100.00
70954;BME280;58618;47.490;8.736;2023-02-22T06:42:02;96361.97;;;1.34;100.00
70954;BME280;58618;47.490;8.736;2023-02-22T06:44:30;96368.53;;;1.42;100.00
70954;BME280;58618;47.490;8.736;2023-02-22T06:46:58;96357.09;;;1.33;100.00
70954;BME280;58618;47.490;8.736;2023-02-22T06:49:26;96369.97;;;1.49;100.00
70954;BME280;58618;47.490;8.736;2023-02-22T06:51:53;96364.78;;;1.56;100.00
70954;BME280;58618;47.490;8.736;2023-02-22T06:54:21;96355.06;;;1.53;100.00
70954;BME280;58618;47.490;8.736;2023-02-22T06:56:48;96366.91;;;1.70;100.00
70954;BME280;58618;47.490;8.736;2023-02-22T06:59:15;96381.59;;;1.80;100.00
70954;BME280;58618;47.490;8.736;2023-02-22T07:01:44;96365.47;;;1.86;100.00
70954;BME280;58618;47.490;8.736;2023-02-22T07:04:11;96373.56;;;1.95;100.00
70954;BME280;58618;47.490;8.736;2023-02-22T07:06:38;96371.47;;;2.03;100.00
70954;BME280;58618;47.490;8.736;2023-02-22T07:09:10;96367.03;;;2.10;100.00
70954;BME280;58618;47.490;8.736;2023-02-22T07:11:38;96377.66;;;2.31;100.00
70954;BME280;58618;47.490;8.736;2023-02-22T07:14:05;96382.94;;;2.41;100.00
70954;BME280;58618;47.490;8.736;2023-02-22T07:16:33;96371.88;;;2.47;100.00
70954;BME280;58618;47.490;8.736;2023-02-22T07:19:02;96374.22;;;2.48;100.00
70954;BME280;58618;47.490;8.736;2023-02-22T07:21:29;96380.28;;;2.59;100.00
70954;BME280;58618;47.490;8.736;2023-02-22T07:23:57;96349.38;;;2.55;100.00
70954;BME280;58618;47.490;8.736;2023-02-22T07:26:26;96382.72;;;2.94;100.00
70954;BME280;58618;47.490;8.736;2023-02-22T07:28:53;96338.81;;;2.75;100.00
70954;BME280;58618;47.490;8.736;2023-02-22T07:31:20;96391.88;;;3.07;100.00
70954;BME280;58618;47.490;8.736;2023-02-22T07:33:48;96369.03;;;3.12;100.00
70954;BME280;58618;47.490;8.736;2023-02-22T07:36:17;96380.44;;;3.37;100.00
70954;BME280;58618;47.490;8.736;2023-02-22T07:38:45;96382.47;;;3.52;100.00
70954;BME280;58618;47.490;8.736;2023-02-22T07:41:12;96386.03;;;3.68;100.00
70954;BME280;58618;47.490;8.736;2023-02-22T07:43:39;96371.59;;;3.73;100.00
70954;BME280;58618;47.490;8.736;2023-02-22T07:46:06;96363.59;;;3.87;100.00
70954;BME280;58618;47.490;8.736;2023-02-22T07:48:33;96380.53;;;4.09;100.00
70954;BME280;58618;47.490;8.736;2023-02-22T07:51:01;96379.09;;;4.35;100.00
70954;BME280;58618;47.490;8.736;2023-02-22T07:53:31;96371.03;;;4.87;100.00
70954;BME280;58618;47.490;8.736;2023-02-22T07:55:59;96366.63;;;5.58;100.00
70954;BME280;58618;47.490;8.736;2023-02-22T07:58:29;96356.22;;;6.01;100.00
70954;BME280;58618;47.490;8.736;2023-02-22T08:00:56;96374.78;;;6.18;99.28
70954;BME280;58618;47.490;8.736;2023-02-22T08:03:25;96363.16;;;6.53;97.10
70954;BME280;58618;47.490;8.736;2023-02-22T08:05:56;96370.94;;;6.78;93.37
70954;BME280;58618;47.490;8.736;2023-02-22T08:08:25;96365.28;;;6.61;94.58
70954;BME280;58618;47.490;8.736;2023-02-22T08:10:54;96352.13;;;6.52;91.91
70954;BME280;58618;47.490;8.736;2023-02-22T08:13:21;96379.44;;;6.89;91.30
70954;BME280;58618;47.490;8.736;2023-02-22T08:15:50;96340.63;;;6.55;91.41
70954;BME280;58618;47.490;8.736;2023-02-22T08:18:18;96374.28;;;6.73;92.04
70954;BME280;58618;47.490;8.736;2023-02-22T08:20:47;96373.53;;;6.83;89.14
70954;BME280;58618;47.490;8.736;2023-02-22T08:23:18;96373.56;;;6.98;87.98
70954;BME280;58618;47.490;8.736;2023-02-22T08:25:45;96370.06;;;7.30;88.46
70954;BME280;58618;47.490;8.736;2023-02-22T08:28:16;96372.09;;;7.12;88.59
70954;BME280;58618;47.490;8.736;2023-02-22T08:30:44;96358.97;;;7.04;90.94
70954;BME280;58618;47.490;8.736;2023-02-22T08:33:13;96340.22;;;6.93;88.19
70954;BME280;58618;47.490;8.736;2023-02-22T08:35:41;96369.22;;;7.04;90.95
70954;BME280;58618;47.490;8.736;2023-02-22T08:38:15;96370.06;;;7.25;90.78
70954;BME280;58618;47.490;8.736;2023-02-22T08:40:42;96373.69;;;7.94;87.69
70954;BME280;58618;47.490;8.736;2023-02-22T08:43:09;96368.78;;;8.38;81.35
70954;BME280;58618;47.490;8.736;2023-02-22T08:45:40;96369.38;;;8.89;77.02
70954;BME280;58618;47.490;8.736;2023-02-22T08:48:07;96341.59;;;8.92;76.90
70954;BME280;58618;47.490;8.736;2023-02-22T08:50:34;96370.63;;;9.41;74.66
70954;BME280;58618;47.490;8.736;2023-02-22T08:53:03;96366.88;;;9.62;73.97
70954;BME280;58618;47.490;8.736;2023-02-22T08:55:33;96380.66;;;9.82;73.48
70954;BME280;58618;47.490;8.736;2023-02-22T08:58:01;96379.06;;;9.86;71.89
70954;BME280;58618;47.490;8.736;2023-02-22T09:00:30;96366.50;;;9.45;70.93
70954;BME280;58618;47.490;8.736;2023-02-22T09:03:00;96373.72;;;9.43;70.92
70954;BME280;58618;47.490;8.736;2023-02-22T09:05:27;96343.03;;;9.81;70.75
70954;BME280;58618;47.490;8.736;2023-02-22T09:07:55;96369.03;;;10.13;71.50
70954;BME280;58618;47.490;8.736;2023-02-22T09:10:24;96363.09;;;10.18;70.27
70954;BME280;58618;47.490;8.736;2023-02-22T09:12:52;96359.75;;;10.12;69.78
70954;BME280;58618;47.490;8.736;2023-02-22T09:15:20;96356.03;;;9.65;70.87
70954;BME280;58618;47.490;8.736;2023-02-22T09:17:48;96364.91;;;9.49;72.08
70954;BME280;58618;47.490;8.736;2023-02-22T09:20:18;96369.09;;;9.40;73.67
70954;BME280;58618;47.490;8.736;2023-02-22T09:22:47;96369.09;;;9.40;74.07
70954;BME280;58618;47.490;8.736;2023-02-22T09:25:15;96363.00;;;9.26;73.11
70954;BME280;58618;47.490;8.736;2023-02-22T09:27:43;96364.34;;;9.18;73.42
70954;BME280;58618;47.490;8.736;2023-02-22T09:30:16;96363.06;;;9.16;72.16
70954;BME280;58618;47.490;8.736;2023-02-22T09:32:44;96361.22;;;8.77;72.83
70954;BME280;58618;47.490;8.736;2023-02-22T09:35:11;96348.25;;;8.98;74.55
70954;BME280;58618;47.490;8.736;2023-02-22T09:37:39;96358.00;;;9.01;74.90
70954;BME280;58618;47.490;8.736;2023-02-22T09:40:14;96352.25;;;9.19;73.64
70954;BME280;58618;47.490;8.736;2023-02-22T09:43:07;96349.81;;;9.38;71.59
70954;BME280;58618;47.490;8.736;2023-02-22T09:45:40;96321.81;;;9.26;71.72
70954;BME280;58618;47.490;8.736;2023-02-22T09:48:14;96356.56;;;9.62;72.10
70954;BME280;58618;47.490;8.736;2023-02-22T09:50:44;96342.22;;;9.56;70.91
70954;BME280;58618;47.490;8.736;2023-02-22T09:53:20;96312.84;;;9.57;72.56
70954;BME280;58618;47.490;8.736;2023-02-22T09:55:57;96338.44;;;9.78;70.72
70954;BME280;58618;47.490;8.736;2023-02-22T09:58:29;96341.41;;;9.90;70.48
70954;BME280;58618;47.490;8.736;2023-02-22T10:01:08;96334.56;;;10.09;71.18
70954;BME280;58618;47.490;8.736;2023-02-22T10:03:48;96336.03;;;10.20;69.34
70954;BME280;58618;47.490;8.736;2023-02-22T10:06:20;96341.72;;;10.41;68.52
70954;BME280;58618;47.490;8.736;2023-02-22T10:08:51;96332.72;;;10.38;69.22
70954;BME280;58618;47.490;8.736;2023-02-22T10:11:36;96331.72;;;10.58;69.21
70954;BME280;58618;47.490;8.736;2023-02-22T10:17:13;96327.94;;;10.93;67.06
70954;BME280;58618;47.490;8.736;2023-02-22T10:19:49;96320.91;;;11.17;68.18
70954;BME280;58618;47.490;8.736;2023-02-22T10:22:38;96329.81;;;11.43;70.31
70954;BME280;58618;47.490;8.736;2023-02-22T10:25:14;96316.47;;;11.55;67.28
70954;BME280;58618;47.490;8.736;2023-02-22T10:27:47;96312.94;;;11.65;69.29
70954;BME280;58618;47.490;8.736;2023-02-22T10:30:20;96295.53;;;11.57;66.39
70954;BME280;58618;47.490;8.736;2023-02-22T10:32:51;96320.59;;;11.70;68.59
70954;BME280;58618;47.490;8.736;2023-02-22T10:35:21;96316.44;;;11.74;68.28
70954;BME280;58618;47.490;8.736;2023-02-22T10:37:52;96319.44;;;11.81;68.30
70954;BME280;58618;47.490;8.736;2023-02-22T10:40:22;96306.41;;;11.86;66.56
70954;BME280;58618;47.490;8.736;2023-02-22T10:42:59;96306.91;;;11.88;66.56
70954;BME280;58618;47.490;8.736;2023-02-22T10:45:29;96315.16;;;12.04;65.84
70954;BME280;58618;47.490;8.736;2023-02-22T10:47:59;96316.81;;;12.13;66.74
70954;BME280;58618;47.490;8.736;2023-02-22T10:50:29;96316.13;;;12.21;66.80
70954;BME280;58618;47.490;8.736;2023-02-22T10:52:57;96310.69;;;12.09;65.07
70954;BME280;58618;47.490;8.736;2023-02-22T10:55:26;96287.50;;;12.04;65.54
70954;BME280;58618;47.490;8.736;2023-02-22T10:57:59;96305.03;;;12.21;64.83
70954;BME280;58618;47.490;8.736;2023-02-22T11:00:30;96313.84;;;12.34;65.42
70954;BME280;58618;47.490;8.736;2023-02-22T11:02:59;96313.66;;;12.44;66.69
70954;BME280;58618;47.490;8.736;2023-02-22T11:05:32;96308.47;;;12.44;66.63
70954;BME280;58618;47.490;8.736;2023-02-22T11:08:21;96304.44;;;12.65;65.92
70954;BME280;58618;47.490;8.736;2023-02-22T11:10:53;96271.66;;;12.60;64.97
70954;BME280;58618;47.490;8.736;2023-02-22T11:13:26;96292.63;;;12.73;64.20
70954;BME280;58618;47.490;8.736;2023-02-22T11:15:54;96296.63;;;12.92;66.60
70954;BME280;58618;47.490;8.736;2023-02-22T11:18:26;96258.22;;;12.58;64.55
70954;BME280;58618;47.490;8.736;2023-02-22T11:21:04;96288.97;;;12.87;65.59
70954;BME280;58618;47.490;8.736;2023-02-22T11:23:33;96249.59;;;12.77;65.51
70954;BME280;58618;47.490;8.736;2023-02-22T11:26:06;96281.91;;;13.15;64.37
70954;BME280;58618;47.490;8.736;2023-02-22T11:28:35;96280.69;;;13.35;64.06
70954;BME280;58618;47.490;8.736;2023-02-22T11:31:13;96280.44;;;13.45;61.85
70954;BME280;58618;47.490;8.736;2023-02-22T11:33:48;96280.91;;;13.47;61.94
70954;BME280;58618;47.490;8.736;2023-02-22T11:36:30;96280.13;;;13.69;64.03
70954;BME280;58618;47.490;8.736;2023-02-22T11:38:57;96272.66;;;13.67;61.43
70954;BME280;58618;47.490;8.736;2023-02-22T11:41:27;96265.94;;;13.66;61.79
70954;BME280;58618;47.490;8.736;2023-02-22T11:44:12;96263.81;;;13.68;61.47
70954;BME280;58618;47.490;8.736;2023-02-22T11:46:41;96261.66;;;13.70;61.14
70954;BME280;58618;47.490;8.736;2023-02-22T11:49:11;96269.28;;;13.67;60.46
70954;BME280;58618;47.490;8.736;2023-02-22T11:51:50;96262.19;;;13.50;60.19
70954;BME280;58618;47.490;8.736;2023-02-22T11:54:36;96263.97;;;13.41;61.19
70954;BME280;58618;47.490;8.736;2023-02-22T11:57:24;96256.66;;;13.43;63.11
70954;BME280;58618;47.490;8.736;2023-02-22T12:00:04;96252.06;;;13.40;60.89
70954;BME280;58618;47.490;8.736;2023-02-22T12:02:52;96254.53;;;13.45;62.52
70954;BME280;58618;47.490;8.736;2023-02-22T12:05:30;96236.88;;;13.47;60.05
70954;BME280;58618;47.490;8.736;2023-02-22T12:08:15;96253.09;;;13.61;61.72
70954;BME280;58618;47.490;8.736;2023-02-22T12:10:54;96249.34;;;13.45;62.17
70954;BME280;58618;47.490;8.736;2023-02-22T12:13:43;96237.03;;;13.28;62.65
70954;BME280;58618;47.490;8.736;2023-02-22T12:16:22;96235.66;;;13.08;61.94
70954;BME280;58618;47.490;8.736;2023-02-22T12:19:04;96243.88;;;13.24;62.55
70954;BME280;58618;47.490;8.736;2023-02-22T12:21:36;96247.25;;;13.25;62.94
70954;BME280;58618;47.490;8.736;2023-02-22T12:24:09;96240.59;;;13.32;61.63
70954;BME280;58618;47.490;8.736;2023-02-22T12:26:40;96212.97;;;13.28;61.98
70954;BME280;58618;47.490;8.736;2023-02-22T12:29:13;96236.25;;;13.50;61.31
70954;BME280;58618;47.490;8.736;2023-02-22T12:31:46;96237.44;;;13.44;59.93
70954;BME280;58618;47.490;8.736;2023-02-22T12:34:21;96232.13;;;13.49;60.74
70954;BME280;58618;47.490;8.736;2023-02-22T12:36:54;96218.59;;;13.52;59.32
70954;BME280;58618;47.490;8.736;2023-02-22T12:39:29;96225.13;;;13.49;60.26
70954;BME280;58618;47.490;8.736;2023-02-22T12:42:03;96214.56;;;13.68;60.49
70954;BME280;58618;47.490;8.736;2023-02-22T12:44:36;96226.25;;;13.96;59.42
70954;BME280;58618;47.490;8.736;2023-02-22T12:47:12;96227.66;;;14.03;58.88
70954;BME280;58618;47.490;8.736;2023-02-22T12:49:42;96216.81;;;14.01;58.61
70954;BME280;58618;47.490;8.736;2023-02-22T12:52:15;96214.22;;;14.01;59.56
70954;BME280;58618;47.490;8.736;2023-02-22T12:54:49;96225.59;;;14.22;59.48
70954;BME280;58618;47.490;8.736;2023-02-22T12:57:25;96216.91;;;14.35;59.58
70954;BME280;58618;47.490;8.736;2023-02-22T13:00:04;96213.06;;;14.24;58.43
70954;BME280;58618;47.490;8.736;2023-02-22T13:02:55;96210.03;;;14.22;58.84
70954;BME280;58618;47.490;8.736;2023-02-22T13:05:24;96213.38;;;14.31;58.25
70954;BME280;58618;47.490;8.736;2023-02-22T13:08:01;96208.63;;;14.16;57.10
70954;BME280;58618;47.490;8.736;2023-02-22T13:10:42;96209.41;;;14.25;58.43
70954;BME280;58618;47.490;8.736;2023-02-22T13:13:17;96214.91;;;14.32;59.08
70954;BME280;58618;47.490;8.736;2023-02-22T13:15:55;96206.81;;;14.16;57.98
70954;BME280;58618;47.490;8.736;2023-02-22T13:18:31;96190.47;;;14.16;58.25
70954;BME280;58618;47.490;8.736;2023-02-22T13:21:08;96213.66;;;14.21;57.17
70954;BME280;58618;47.490;8.736;2023-02-22T13:23:44;96205.88;;;14.21;58.53
70954;BME280;58618;47.490;8.736;2023-02-22T13:26:17;96202.81;;;14.19;58.49
70954;BME280;58618;47.490;8.736;2023-02-22T13:28:49;96203.28;;;14.21;58.64